Buoy 62910

sailwx.info

Track history (hours):
 
Tides and Currents Weather Stations Pressure Air Temp Water Temp Dewpoint Dewpoint Depression Visibility Wind Speed Wind Dir Waves Ship Positions

Drifting buoy 62910

Last reported at 2015-Jul-30 08:53 UTC. Time now 2015-Jul-30 10:08 UTC.
Position N 43°38' E 010°08'.

Water temperature 25.8 ° C

Date/timePositionNaut miles runAvg speedWind from/ knotsBaromVisibWave heightAir tempDewpointWater temp
2015-Jul-30 08:53N 43°38' E 010°08'1 0.4 25.8
2015-Jul-30 07:19N 43°39' E 010°08'0 0.0 25.8
2015-Jul-30 07:12N 43°39' E 010°08'1 0.5 25.8
2015-Jul-30 04:58N 43°40' E 010°07'1 9.8 25.8
2015-Jul-30 04:52N 43°40' E 010°05'0 0.0 25.8
2015-Jul-30 04:03N 43°40' E 010°05'0 1.1 25.8
2015-Jul-30 03:59N 43°40' E 010°05'0 9.6 25.8
2015-Jul-30 03:56N 43°40' E 010°05'0 0.3 25.8
2015-Jul-30 03:17N 43°40' E 010°05'110.2 25.7
2015-Jul-30 03:10N 43°40' E 010°03'4 0.6 25.7
2015-Jul-29 19:48N 43°39' E 009°57'0 0.5 25.9
2015-Jul-29 19:00N 43°39' E 009°57'0 0.1 25.9
2015-Jul-29 15:58N 43°39' E 009°56'0 0.6 26.0
2015-Jul-29 15:05N 43°40' E 009°56'0 1.6 26.0
2015-Jul-29 14:58N 43°40' E 009°56'1 0.6 26.0
2015-Jul-29 14:02N 43°40' E 009°56'2 0.7 26.0
2015-Jul-29 10:58N 43°41' E 009°54'0 0.4 25.9
2015-Jul-29 10:51N 43°41' E 009°54'0 0.0 25.9
2015-Jul-29 10:03N 43°41' E 009°54'117.2 25.9
2015-Jul-29 10:00N 43°41' E 009°53'2 0.5 25.9
2015-Jul-29 07:05N 43°41' E 009°50'1 8.4 25.9
2015-Jul-29 06:58N 43°41' E 009°49'0 0.0 25.9
2015-Jul-29 05:54N 43°41' E 009°49'1 0.7 26.0
2015-Jul-29 04:12N 43°41' E 009°47'2 0.6 26.0
2015-Jul-29 00:06N 43°40' E 009°44'114.8 26.0
2015-Jul-29 00:03N 43°40' E 009°44'0 0.0 26.0
2015-Jul-28 21:48N 43°40' E 009°44'0 0.3 26.0
2015-Jul-28 21:04N 43°40' E 009°43'0 0.8 26.0
2015-Jul-28 20:55N 43°40' E 009°43'0 0.0 26.0
2015-Jul-28 20:52N 43°40' E 009°43'0 0.3 26.0
2015-Jul-28 19:59N 43°40' E 009°43'0 0.0 26.1
2015-Jul-28 19:48N 43°40' E 009°43'0 0.1 26.1
2015-Jul-28 18:09N 43°40' E 009°43'1 0.7 26.1
2015-Jul-28 17:11N 43°40' E 009°42'1 0.5 26.1
2015-Jul-28 15:57N 43°41' E 009°42'1 1.2 26.1
2015-Jul-28 15:30N 43°41' E 009°41'0 0.6 26.1
2015-Jul-28 15:07N 43°41' E 009°41'1 1.3 26.1
2015-Jul-28 14:06N 43°41' E 009°39'0 0.0 26.1
2015-Jul-28 13:48N 43°41' E 009°39'0 0.1 26.0
2015-Jul-28 12:00N 43°41' E 009°39'2 0.4 26.0
2015-Jul-28 07:49N 43°40' E 009°37'0 0.0 25.9
2015-Jul-28 06:03N 43°40' E 009°37'0 4.6 25.9
2015-Jul-28 05:58N 43°40' E 009°37'0 0.1 25.9
2015-Jul-28 04:05N 43°40' E 009°37'1 0.5 25.8
2015-Jul-28 02:00N 43°41' E 009°36'2 1.1 25.9
2015-Jul-28 00:14N 43°40' E 009°33'1 0.1 25.9
2015-Jul-27 18:47N 43°40' E 009°32'1 0.3 26.0
2015-Jul-27 17:04N 43°40' E 009°31'0 0.9 25.9
2015-Jul-27 16:59N 43°40' E 009°31'0 0.2 25.9
2015-Jul-27 16:08N 43°40' E 009°31'1 0.4 25.9
2015-Jul-27 14:18N 43°41' E 009°30'0 0.0 25.9
2015-Jul-27 11:57N 43°41' E 009°30'1 9.3 26.0
2015-Jul-27 11:52N 43°41' E 009°29'0 0.2 26.0
2015-Jul-27 09:58N 43°41' E 009°30'0 2.2 26.0
2015-Jul-27 09:51N 43°41' E 009°29'0 0.0
2015-Jul-27 09:04N 43°41' E 009°29'0 0.0 26.0
2015-Jul-27 08:58N 43°41' E 009°29'0 0.3 26.0
2015-Jul-27 08:12N 43°41' E 009°30'0 0.0 26.0
2015-Jul-27 07:53N 43°41' E 009°30'0 0.3 26.0
2015-Jul-27 06:11N 43°41' E 009°30'0 0.0 26.0
2015-Jul-27 04:53N 43°41' E 009°30'1 0.3 26.0
2015-Jul-27 03:10N 43°40' E 009°30'1 1.7 26.1
2015-Jul-27 02:51N 43°41' E 009°30'1 1.2 26.1
2015-Jul-27 02:10N 43°41' E 009°29'0 0.0 26.1
2015-Jul-27 02:07N 43°41' E 009°29'0 0.0 26.1
2015-Jul-27 00:28N 43°41' E 009°29'0 0.0 26.2
2015-Jul-26 22:29N 43°41' E 009°29'0 0.5 26.4
2015-Jul-26 21:44N 43°41' E 009°30'0 3.1 26.4
2015-Jul-26 21:35N 43°41' E 009°29'0 0.0 26.4
2015-Jul-26 20:51N 43°41' E 009°29'0 1.9 26.5
2015-Jul-26 20:42N 43°41' E 009°29'0 0.0 26.5
2015-Jul-26 20:05N 43°41' E 009°29'0 3.5
2015-Jul-26 19:58N 43°41' E 009°28'110.1 26.5
2015-Jul-26 19:54N 43°41' E 009°29'0 0.0 26.5
2015-Jul-26 19:12N 43°41' E 009°29'0 0.0 26.6
2015-Jul-26 19:08N 43°41' E 009°29'0 4.1 26.6
2015-Jul-26 19:01N 43°41' E 009°29'0 0.0 26.6
2015-Jul-26 18:01N 43°41' E 009°29'0 2.0 26.6
2015-Jul-26 17:57N 43°41' E 009°28'0 0.6 26.6
2015-Jul-26 17:31N 43°41' E 009°29'0 0.1 26.6
2015-Jul-26 16:17N 43°41' E 009°29'0 2.0 26.6
2015-Jul-26 16:13N 43°41' E 009°29'0 0.5 26.6
2015-Jul-26 15:50N 43°41' E 009°29'0 0.2 26.7
2015-Jul-26 14:31N 43°41' E 009°29'0 0.0 26.6
2015-Jul-26 13:52N 43°41' E 009°29'0 1.9 26.6
2015-Jul-26 13:45N 43°41' E 009°29'1 0.3 26.6
2015-Jul-26 12:09N 43°40' E 009°29'0 2.1 26.5
2015-Jul-26 12:04N 43°40' E 009°29'0 0.2 26.5
2015-Jul-26 11:04N 43°40' E 009°29'011.7 26.4
2015-Jul-26 11:02N 43°40' E 009°30'0 0.0 26.4
2015-Jul-26 10:20N 43°40' E 009°30'0 1.9 26.4
2015-Jul-26 10:11N 43°40' E 009°30'0 0.0 26.4
2015-Jul-26 09:25N 43°40' E 009°30'0 0.0 26.3
2015-Jul-26 08:36N 43°40' E 009°30'1 1.2 26.3
2015-Jul-26 07:39N 43°40' E 009°32'0 0.0
2015-Jul-26 07:00N 43°40' E 009°32'0 0.1 26.3
2015-Jul-26 06:28N 43°40' E 009°32'1 5.5 26.3
2015-Jul-26 06:21N 43°40' E 009°33'0 0.0 26.3
2015-Jul-26 05:23N 43°40' E 009°33'0 0.5 26.3
2015-Jul-26 04:51N 43°40' E 009°33'0 0.0 26.3
2015-Jul-26 04:48N 43°40' E 009°33'1 7.0 26.3
2015-Jul-26 04:39N 43°41' E 009°33'0 0.0 26.3
2015-Jul-26 03:55N 43°41' E 009°33'0 0.0
2015-Jul-26 03:39N 43°41' E 009°33'0 0.0 26.4
2015-Jul-26 03:14N 43°41' E 009°33'0 0.0 26.4
2015-Jul-26 03:02N 43°41' E 009°33'0 0.1 26.4
2015-Jul-26 02:21N 43°41' E 009°33'2 0.7 26.5
2015-Jul-25 22:47N 43°42' E 009°30'0 0.0 27.3
2015-Jul-25 21:58N 43°42' E 009°30'1 1.0 27.6
2015-Jul-25 21:00N 43°42' E 009°29'1 0.5
2015-Jul-25 18:06N 43°41' E 009°27'2 0.6 28.0
2015-Jul-25 15:04N 43°40' E 009°29'1 0.8 28.1
2015-Jul-25 14:01N 43°40' E 009°30'0 0.1 28.1
2015-Jul-25 12:15N 43°40' E 009°30'2 0.7 28.1
2015-Jul-25 09:46N 43°41' E 009°32'0 3.1 28.2
2015-Jul-25 09:39N 43°42' E 009°32'0 0.0 28.2
2015-Jul-25 09:02N 43°42' E 009°32'1 5.4 28.2
2015-Jul-25 08:53N 43°42' E 009°31'0 0.0 28.2
2015-Jul-25 08:04N 43°42' E 009°31'0 0.0 28.3
2015-Jul-25 07:02N 43°42' E 009°31'0 0.5 28.4
2015-Jul-25 06:39N 43°42' E 009°30'0 4.2 28.4
2015-Jul-25 06:34N 43°42' E 009°30'0 0.0 28.4
2015-Jul-25 05:55N 43°42' E 009°30'0 0.8 28.4
2015-Jul-25 05:18N 43°42' E 009°29'0 0.2 28.5
2015-Jul-25 04:58N 43°42' E 009°29'0 0.2 28.5
2015-Jul-25 04:16N 43°42' E 009°29'0 4.5 28.5
2015-Jul-25 04:13N 43°42' E 009°29'1 6.1 28.5
2015-Jul-25 04:07N 43°43' E 009°28'0 0.0
2015-Jul-25 03:39N 43°43' E 009°28'0 0.7 28.5
2015-Jul-25 03:12N 43°42' E 009°28'1 0.4
2015-Jul-25 00:51N 43°41' E 009°29'2 0.3 28.7
2015-Jul-24 19:53N 43°41' E 009°31'1 0.7 28.9
2015-Jul-24 18:15N 43°42' E 009°32'0 0.1 29.1
2015-Jul-24 17:10N 43°42' E 009°32'0 6.0 29.1
2015-Jul-24 17:08N 43°42' E 009°32'0 1.6 29.1
2015-Jul-24 16:58N 43°42' E 009°32'0 2.7 29.1
2015-Jul-24 16:52N 43°42' E 009°32'3 0.1 29.1
2015-Jul-23 21:00N 43°45' E 009°30'1 7.6
2015-Jul-23 20:56N 43°45' E 009°31'0 0.5 28.7
2015-Jul-23 20:03N 43°45' E 009°30'0 0.1 28.8
2015-Jul-23 19:05N 43°45' E 009°30'2 0.5 28.9
2015-Jul-23 15:53N 43°46' E 009°28'0 0.0 29.4
2015-Jul-23 15:12N 43°46' E 009°28'0 1.7 29.3
2015-Jul-23 15:01N 43°46' E 009°28'1 1.2 29.3
2015-Jul-23 14:10N 43°46' E 009°27'0 0.1 29.2
2015-Jul-23 12:03N 43°46' E 009°26'0 0.3 29.3
2015-Jul-23 11:03N 43°46' E 009°26'0 0.7 29.2
2015-Jul-23 10:57N 43°46' E 009°26'1 0.3 29.1
2015-Jul-23 08:49N 43°45' E 009°26'0 0.4 28.7
2015-Jul-23 07:56N 43°45' E 009°25'0 0.4 28.7
2015-Jul-23 07:01N 43°45' E 009°25'0 0.6 28.5
2015-Jul-23 06:10N 43°44' E 009°25'1 0.4 28.4
2015-Jul-23 02:53N 43°43' E 009°25'0 0.2 28.5
2015-Jul-23 01:14N 43°43' E 009°26'025.8 28.5
2015-Jul-23 01:13N 43°43' E 009°26'0 0.1 28.5
2015-Jul-22 22:05N 43°42' E 009°26'0 0.1 28.5
2015-Jul-22 18:49N 43°42' E 009°25'1 1.0 29.0
2015-Jul-22 17:58N 43°41' E 009°26'0 7.2 29.1
2015-Jul-22 17:56N 43°42' E 009°26'0 0.0 29.1
2015-Jul-22 16:58N 43°42' E 009°26'1 0.3 29.2
2015-Jul-22 15:14N 43°41' E 009°26'0 0.2 29.4
2015-Jul-22 12:56N 43°41' E 009°26'0 0.2 29.5
2015-Jul-22 11:15N 43°41' E 009°26'0 3.0 29.4
2015-Jul-22 11:08N 43°40' E 009°26'0 0.1 29.4
2015-Jul-22 10:03N 43°40' E 009°27'0 1.5 29.2
2015-Jul-22 09:56N 43°40' E 009°27'1 0.7
2015-Jul-22 09:06N 43°40' E 009°27'0 0.1 28.9
2015-Jul-22 07:13N 43°40' E 009°27'1 0.4 28.7
2015-Jul-22 05:48N 43°39' E 009°27'1 0.9 28.7
2015-Jul-22 04:57N 43°39' E 009°28'0 0.4 28.7
2015-Jul-22 04:10N 43°39' E 009°29'0 0.7 28.7
2015-Jul-22 03:55N 43°39' E 009°29'0 0.4 28.7
2015-Jul-22 03:15N 43°38' E 009°29'0 0.3 28.7
2015-Jul-22 03:06N 43°38' E 009°29'1 7.1 28.7
2015-Jul-22 02:59N 43°38' E 009°30'2 0.3 28.7
2015-Jul-21 20:55N 43°38' E 009°33'0 0.2 29.1
2015-Jul-21 20:09N 43°38' E 009°33'0 1.3
2015-Jul-21 20:07N 43°38' E 009°33'1 6.3 29.1
2015-Jul-21 19:58N 43°38' E 009°35'0 0.0
2015-Jul-21 19:04N 43°38' E 009°35'0 0.2 29.3
2015-Jul-21 17:16N 43°38' E 009°35'0 0.1 30.0
2015-Jul-21 16:51N 43°38' E 009°35'1 0.4 30.0
2015-Jul-21 15:05N 43°39' E 009°36'0 2.0 30.2
2015-Jul-21 14:56N 43°39' E 009°36'1 0.4 30.2
2015-Jul-21 11:07N 43°40' E 009°38'1 0.4 30.5
2015-Jul-21 07:03N 43°40' E 009°39'0 2.5 28.7
2015-Jul-21 06:58N 43°40' E 009°40'1 0.4 28.7
2015-Jul-21 04:54N 43°41' E 009°41'1 0.9 28.5
2015-Jul-21 04:01N 43°41' E 009°42'0 0.1 28.5
2015-Jul-21 03:17N 43°41' E 009°42'110.1 28.6
2015-Jul-21 03:11N 43°42' E 009°42'0 0.0
2015-Jul-21 01:36N 43°42' E 009°42'3 1.5 28.6
2015-Jul-20 23:52N 43°44' E 009°44'0 0.0 28.6
2015-Jul-20 22:52N 43°44' E 009°44'0 0.0 28.6
2015-Jul-20 22:08N 43°44' E 009°44'0 0.0 28.6
2015-Jul-20 21:13N 43°44' E 009°44'1 4.1 28.7
2015-Jul-20 21:04N 43°45' E 009°44'0 0.0 28.7
2015-Jul-20 20:36N 43°45' E 009°44'0 0.0 28.7
2015-Jul-20 20:29N 43°45' E 009°44'0 0.4 28.7
2015-Jul-20 19:32N 43°45' E 009°44'0 2.5 28.9
2015-Jul-20 19:23N 43°46' E 009°44'0 0.0 28.9
2015-Jul-20 18:57N 43°46' E 009°44'1 2.6 29.1
2015-Jul-20 18:44N 43°46' E 009°44'0 7.2 29.1
2015-Jul-20 18:41N 43°47' E 009°44'0 0.0 29.1
2015-Jul-20 17:51N 43°47' E 009°44'0 0.0 29.4
2015-Jul-20 17:27N 43°47' E 009°44'0 0.0 29.6
2015-Jul-20 17:23N 43°47' E 009°44'1 4.8 29.7
2015-Jul-20 17:09N 43°48' E 009°44'0 0.0 29.7
2015-Jul-20 15:48N 43°48' E 009°44'0 0.4 30.2
2015-Jul-20 15:28N 43°48' E 009°44'0 0.8 30.3
2015-Jul-20 14:58N 43°48' E 009°44'0 0.5 30.4
2015-Jul-20 14:05N 43°49' E 009°44'0 4.2 30.0
2015-Jul-20 14:00N 43°49' E 009°43'0 0.1 30.0
2015-Jul-20 13:12N 43°49' E 009°43'1 0.3 29.9
2015-Jul-20 11:32N 43°49' E 009°43'0 3.7 29.9
2015-Jul-20 11:28N 43°50' E 009°43'0 0.6 29.6
2015-Jul-20 10:44N 43°50' E 009°43'0 1.3
2015-Jul-20 10:40N 43°50' E 009°43'0 4.4 28.9
2015-Jul-20 10:35N 43°50' E 009°43'0 0.0 28.9
2015-Jul-20 09:49N 43°50' E 009°43'0 5.5 28.5
2015-Jul-20 09:44N 43°51' E 009°42'0 0.0
2015-Jul-20 09:03N 43°51' E 009°42'   28.2
Track history (hours):
 
Tides and Currents Weather Stations Pressure Air Temp Water Temp Dewpoint Dewpoint Depression Visibility Wind Speed Wind Dir Waves Ship Positions

Drifting buoy 62910

Last reported at 2015-Jul-30 08:53 UTC. Time now 2015-Jul-30 10:08 UTC.
Position N 43°38' E 010°08'.

Water temperature 25.8 ° C

Date/timePositionNaut miles runAvg speedWind from/ knotsBaromVisibWave heightAir tempDewpointWater temp
2015-Jul-30 08:53N 43°38' E 010°08'1 0.4 25.8
2015-Jul-30 07:19N 43°39' E 010°08'0 0.0 25.8
2015-Jul-30 07:12N 43°39' E 010°08'1 0.5 25.8
2015-Jul-30 04:58N 43°40' E 010°07'1 9.8 25.8
2015-Jul-30 04:52N 43°40' E 010°05'0 0.0 25.8
2015-Jul-30 04:03N 43°40' E 010°05'0 1.1 25.8
2015-Jul-30 03:59N 43°40' E 010°05'0 9.6 25.8
2015-Jul-30 03:56N 43°40' E 010°05'0 0.3 25.8
2015-Jul-30 03:17N 43°40' E 010°05'110.2 25.7
2015-Jul-30 03:10N 43°40' E 010°03'4 0.6 25.7
2015-Jul-29 19:48N 43°39' E 009°57'0 0.5 25.9
2015-Jul-29 19:00N 43°39' E 009°57'0 0.1 25.9
2015-Jul-29 15:58N 43°39' E 009°56'0 0.6 26.0
2015-Jul-29 15:05N 43°40' E 009°56'0 1.6 26.0
2015-Jul-29 14:58N 43°40' E 009°56'1 0.6 26.0
2015-Jul-29 14:02N 43°40' E 009°56'2 0.7 26.0
2015-Jul-29 10:58N 43°41' E 009°54'0 0.4 25.9
2015-Jul-29 10:51N 43°41' E 009°54'0 0.0 25.9
2015-Jul-29 10:03N 43°41' E 009°54'117.2 25.9
2015-Jul-29 10:00N 43°41' E 009°53'2 0.5 25.9
2015-Jul-29 07:05N 43°41' E 009°50'1 8.4 25.9
2015-Jul-29 06:58N 43°41' E 009°49'0 0.0 25.9
2015-Jul-29 05:54N 43°41' E 009°49'1 0.7 26.0
2015-Jul-29 04:12N 43°41' E 009°47'2 0.6 26.0
2015-Jul-29 00:06N 43°40' E 009°44'114.8 26.0
2015-Jul-29 00:03N 43°40' E 009°44'0 0.0 26.0
2015-Jul-28 21:48N 43°40' E 009°44'0 0.3 26.0
2015-Jul-28 21:04N 43°40' E 009°43'0 0.8 26.0
2015-Jul-28 20:55N 43°40' E 009°43'0 0.0 26.0
2015-Jul-28 20:52N 43°40' E 009°43'0 0.3 26.0
2015-Jul-28 19:59N 43°40' E 009°43'0 0.0 26.1
2015-Jul-28 19:48N 43°40' E 009°43'0 0.1 26.1
2015-Jul-28 18:09N 43°40' E 009°43'1 0.7 26.1
2015-Jul-28 17:11N 43°40' E 009°42'1 0.5 26.1
2015-Jul-28 15:57N 43°41' E 009°42'1 1.2 26.1
2015-Jul-28 15:30N 43°41' E 009°41'0 0.6 26.1
2015-Jul-28 15:07N 43°41' E 009°41'1 1.3 26.1
2015-Jul-28 14:06N 43°41' E 009°39'0 0.0 26.1
2015-Jul-28 13:48N 43°41' E 009°39'0 0.1 26.0
2015-Jul-28 12:00N 43°41' E 009°39'2 0.4 26.0
2015-Jul-28 07:49N 43°40' E 009°37'0 0.0 25.9
2015-Jul-28 06:03N 43°40' E 009°37'0 4.6 25.9
2015-Jul-28 05:58N 43°40' E 009°37'0 0.1 25.9
2015-Jul-28 04:05N 43°40' E 009°37'1 0.5 25.8
2015-Jul-28 02:00N 43°41' E 009°36'2 1.1 25.9
2015-Jul-28 00:14N 43°40' E 009°33'1 0.1 25.9
2015-Jul-27 18:47N 43°40' E 009°32'1 0.3 26.0
2015-Jul-27 17:04N 43°40' E 009°31'0 0.9 25.9
2015-Jul-27 16:59N 43°40' E 009°31'0 0.2 25.9
2015-Jul-27 16:08N 43°40' E 009°31'1 0.4 25.9
2015-Jul-27 14:18N 43°41' E 009°30'0 0.0 25.9
2015-Jul-27 11:57N 43°41' E 009°30'1 9.3 26.0
2015-Jul-27 11:52N 43°41' E 009°29'0 0.2 26.0
2015-Jul-27 09:58N 43°41' E 009°30'0 2.2 26.0
2015-Jul-27 09:51N 43°41' E 009°29'0 0.0
2015-Jul-27 09:04N 43°41' E 009°29'0 0.0 26.0
2015-Jul-27 08:58N 43°41' E 009°29'0 0.3 26.0
2015-Jul-27 08:12N 43°41' E 009°30'0 0.0 26.0
2015-Jul-27 07:53N 43°41' E 009°30'0 0.3 26.0
2015-Jul-27 06:11N 43°41' E 009°30'0 0.0 26.0
2015-Jul-27 04:53N 43°41' E 009°30'1 0.3 26.0
2015-Jul-27 03:10N 43°40' E 009°30'1 1.7 26.1
2015-Jul-27 02:51N 43°41' E 009°30'1 1.2 26.1
2015-Jul-27 02:10N 43°41' E 009°29'0 0.0 26.1
2015-Jul-27 02:07N 43°41' E 009°29'0 0.0 26.1
2015-Jul-27 00:28N 43°41' E 009°29'0 0.0 26.2
2015-Jul-26 22:29N 43°41' E 009°29'0 0.5 26.4
2015-Jul-26 21:44N 43°41' E 009°30'0 3.1 26.4
2015-Jul-26 21:35N 43°41' E 009°29'0 0.0 26.4
2015-Jul-26 20:51N 43°41' E 009°29'0 1.9 26.5
2015-Jul-26 20:42N 43°41' E 009°29'0 0.0 26.5
2015-Jul-26 20:05N 43°41' E 009°29'0 3.5
2015-Jul-26 19:58N 43°41' E 009°28'110.1 26.5
2015-Jul-26 19:54N 43°41' E 009°29'0 0.0 26.5
2015-Jul-26 19:12N 43°41' E 009°29'0 0.0 26.6
2015-Jul-26 19:08N 43°41' E 009°29'0 4.1 26.6
2015-Jul-26 19:01N 43°41' E 009°29'0 0.0 26.6
2015-Jul-26 18:01N 43°41' E 009°29'0 2.0 26.6
2015-Jul-26 17:57N 43°41' E 009°28'0 0.6 26.6
2015-Jul-26 17:31N 43°41' E 009°29'0 0.1 26.6
2015-Jul-26 16:17N 43°41' E 009°29'0 2.0 26.6
2015-Jul-26 16:13N 43°41' E 009°29'0 0.5 26.6
2015-Jul-26 15:50N 43°41' E 009°29'0 0.2 26.7
2015-Jul-26 14:31N 43°41' E 009°29'0 0.0 26.6
2015-Jul-26 13:52N 43°41' E 009°29'0 1.9 26.6
2015-Jul-26 13:45N 43°41' E 009°29'1 0.3 26.6
2015-Jul-26 12:09N 43°40' E 009°29'0 2.1 26.5
2015-Jul-26 12:04N 43°40' E 009°29'0 0.2 26.5
2015-Jul-26 11:04N 43°40' E 009°29'011.7 26.4
2015-Jul-26 11:02N 43°40' E 009°30'0 0.0 26.4
2015-Jul-26 10:20N 43°40' E 009°30'0 1.9 26.4
2015-Jul-26 10:11N 43°40' E 009°30'0 0.0 26.4
2015-Jul-26 09:25N 43°40' E 009°30'0 0.0 26.3
2015-Jul-26 08:36N 43°40' E 009°30'1 1.2 26.3
2015-Jul-26 07:39N 43°40' E 009°32'0 0.0
2015-Jul-26 07:00N 43°40' E 009°32'0 0.1 26.3
2015-Jul-26 06:28N 43°40' E 009°32'1 5.5 26.3
2015-Jul-26 06:21N 43°40' E 009°33'0 0.0 26.3
2015-Jul-26 05:23N 43°40' E 009°33'0 0.5 26.3
2015-Jul-26 04:51N 43°40' E 009°33'0 0.0 26.3
2015-Jul-26 04:48N 43°40' E 009°33'1 7.0 26.3
2015-Jul-26 04:39N 43°41' E 009°33'0 0.0 26.3
2015-Jul-26 03:55N 43°41' E 009°33'0 0.0
2015-Jul-26 03:39N 43°41' E 009°33'0 0.0 26.4
2015-Jul-26 03:14N 43°41' E 009°33'0 0.0 26.4
2015-Jul-26 03:02N 43°41' E 009°33'0 0.1 26.4
2015-Jul-26 02:21N 43°41' E 009°33'2 0.7 26.5
2015-Jul-25 22:47N 43°42' E 009°30'0 0.0 27.3
2015-Jul-25 21:58N 43°42' E 009°30'1 1.0 27.6
2015-Jul-25 21:00N 43°42' E 009°29'1 0.5
2015-Jul-25 18:06N 43°41' E 009°27'2 0.6 28.0
2015-Jul-25 15:04N 43°40' E 009°29'1 0.8 28.1
2015-Jul-25 14:01N 43°40' E 009°30'0 0.1 28.1
2015-Jul-25 12:15N 43°40' E 009°30'2 0.7 28.1
2015-Jul-25 09:46N 43°41' E 009°32'0 3.1 28.2
2015-Jul-25 09:39N 43°42' E 009°32'0 0.0 28.2
2015-Jul-25 09:02N 43°42' E 009°32'1 5.4 28.2
2015-Jul-25 08:53N 43°42' E 009°31'0 0.0 28.2
2015-Jul-25 08:04N 43°42' E 009°31'0 0.0 28.3
2015-Jul-25 07:02N 43°42' E 009°31'0 0.5 28.4
2015-Jul-25 06:39N 43°42' E 009°30'0 4.2 28.4
2015-Jul-25 06:34N 43°42' E 009°30'0 0.0 28.4
2015-Jul-25 05:55N 43°42' E 009°30'0 0.8 28.4
2015-Jul-25 05:18N 43°42' E 009°29'0 0.2 28.5
2015-Jul-25 04:58N 43°42' E 009°29'0 0.2 28.5
2015-Jul-25 04:16N 43°42' E 009°29'0 4.5 28.5
2015-Jul-25 04:13N 43°42' E 009°29'1 6.1 28.5
2015-Jul-25 04:07N 43°43' E 009°28'0 0.0
2015-Jul-25 03:39N 43°43' E 009°28'0 0.7 28.5
2015-Jul-25 03:12N 43°42' E 009°28'1 0.4
2015-Jul-25 00:51N 43°41' E 009°29'2 0.3 28.7
2015-Jul-24 19:53N 43°41' E 009°31'1 0.7 28.9
2015-Jul-24 18:15N 43°42' E 009°32'0 0.1 29.1
2015-Jul-24 17:10N 43°42' E 009°32'0 6.0 29.1
2015-Jul-24 17:08N 43°42' E 009°32'0 1.6 29.1
2015-Jul-24 16:58N 43°42' E 009°32'0 2.7 29.1
2015-Jul-24 16:52N 43°42' E 009°32'3 0.1 29.1
2015-Jul-23 21:00N 43°45' E 009°30'1 7.6
2015-Jul-23 20:56N 43°45' E 009°31'0 0.5 28.7
2015-Jul-23 20:03N 43°45' E 009°30'0 0.1 28.8
2015-Jul-23 19:05N 43°45' E 009°30'2 0.5 28.9
2015-Jul-23 15:53N 43°46' E 009°28'0 0.0 29.4
2015-Jul-23 15:12N 43°46' E 009°28'0 1.7 29.3
2015-Jul-23 15:01N 43°46' E 009°28'1 1.2 29.3
2015-Jul-23 14:10N 43°46' E 009°27'0 0.1 29.2
2015-Jul-23 12:03N 43°46' E 009°26'0 0.3 29.3
2015-Jul-23 11:03N 43°46' E 009°26'0 0.7 29.2
2015-Jul-23 10:57N 43°46' E 009°26'1 0.3 29.1
2015-Jul-23 08:49N 43°45' E 009°26'0 0.4 28.7
2015-Jul-23 07:56N 43°45' E 009°25'0 0.4 28.7
2015-Jul-23 07:01N 43°45' E 009°25'0 0.6 28.5
2015-Jul-23 06:10N 43°44' E 009°25'1 0.4 28.4
2015-Jul-23 02:53N 43°43' E 009°25'0 0.2 28.5
2015-Jul-23 01:14N 43°43' E 009°26'025.8 28.5
2015-Jul-23 01:13N 43°43' E 009°26'0 0.1 28.5
2015-Jul-22 22:05N 43°42' E 009°26'0 0.1 28.5
2015-Jul-22 18:49N 43°42' E 009°25'1 1.0 29.0
2015-Jul-22 17:58N 43°41' E 009°26'0 7.2 29.1
2015-Jul-22 17:56N 43°42' E 009°26'0 0.0 29.1
2015-Jul-22 16:58N 43°42' E 009°26'1 0.3 29.2
2015-Jul-22 15:14N 43°41' E 009°26'0 0.2 29.4
2015-Jul-22 12:56N 43°41' E 009°26'0 0.2 29.5
2015-Jul-22 11:15N 43°41' E 009°26'0 3.0 29.4
2015-Jul-22 11:08N 43°40' E 009°26'0 0.1 29.4
2015-Jul-22 10:03N 43°40' E 009°27'0 1.5 29.2
2015-Jul-22 09:56N 43°40' E 009°27'1 0.7
2015-Jul-22 09:06N 43°40' E 009°27'0 0.1 28.9
2015-Jul-22 07:13N 43°40' E 009°27'1 0.4 28.7
2015-Jul-22 05:48N 43°39' E 009°27'1 0.9 28.7
2015-Jul-22 04:57N 43°39' E 009°28'0 0.4 28.7
2015-Jul-22 04:10N 43°39' E 009°29'0 0.7 28.7
2015-Jul-22 03:55N 43°39' E 009°29'0 0.4 28.7
2015-Jul-22 03:15N 43°38' E 009°29'0 0.3 28.7
2015-Jul-22 03:06N 43°38' E 009°29'1 7.1 28.7
2015-Jul-22 02:59N 43°38' E 009°30'2 0.3 28.7
2015-Jul-21 20:55N 43°38' E 009°33'0 0.2 29.1
2015-Jul-21 20:09N 43°38' E 009°33'0 1.3
2015-Jul-21 20:07N 43°38' E 009°33'1 6.3 29.1
2015-Jul-21 19:58N 43°38' E 009°35'0 0.0
2015-Jul-21 19:04N 43°38' E 009°35'0 0.2 29.3
2015-Jul-21 17:16N 43°38' E 009°35'0 0.1 30.0
2015-Jul-21 16:51N 43°38' E 009°35'1 0.4 30.0
2015-Jul-21 15:05N 43°39' E 009°36'0 2.0 30.2
2015-Jul-21 14:56N 43°39' E 009°36'1 0.4 30.2
2015-Jul-21 11:07N 43°40' E 009°38'1 0.4 30.5
2015-Jul-21 07:03N 43°40' E 009°39'0 2.5 28.7
2015-Jul-21 06:58N 43°40' E 009°40'1 0.4 28.7
2015-Jul-21 04:54N 43°41' E 009°41'1 0.9 28.5
2015-Jul-21 04:01N 43°41' E 009°42'0 0.1 28.5
2015-Jul-21 03:17N 43°41' E 009°42'110.1 28.6
2015-Jul-21 03:11N 43°42' E 009°42'0 0.0
2015-Jul-21 01:36N 43°42' E 009°42'3 1.5 28.6
2015-Jul-20 23:52N 43°44' E 009°44'0 0.0 28.6
2015-Jul-20 22:52N 43°44' E 009°44'0 0.0 28.6
2015-Jul-20 22:08N 43°44' E 009°44'0 0.0 28.6
2015-Jul-20 21:13N 43°44' E 009°44'1 4.1 28.7
2015-Jul-20 21:04N 43°45' E 009°44'0 0.0 28.7
2015-Jul-20 20:36N 43°45' E 009°44'0 0.0 28.7
2015-Jul-20 20:29N 43°45' E 009°44'0 0.4 28.7
2015-Jul-20 19:32N 43°45' E 009°44'0 2.5 28.9
2015-Jul-20 19:23N 43°46' E 009°44'0 0.0 28.9
2015-Jul-20 18:57N 43°46' E 009°44'1 2.6 29.1
2015-Jul-20 18:44N 43°46' E 009°44'0 7.2 29.1
2015-Jul-20 18:41N 43°47' E 009°44'0 0.0 29.1
2015-Jul-20 17:51N 43°47' E 009°44'0 0.0 29.4
2015-Jul-20 17:27N 43°47' E 009°44'0 0.0 29.6
2015-Jul-20 17:23N 43°47' E 009°44'1 4.8 29.7
2015-Jul-20 17:09N 43°48' E 009°44'0 0.0 29.7
2015-Jul-20 15:48N 43°48' E 009°44'0 0.4 30.2
2015-Jul-20 15:28N 43°48' E 009°44'0 0.8 30.3
2015-Jul-20 14:58N 43°48' E 009°44'0 0.5 30.4
2015-Jul-20 14:05N 43°49' E 009°44'0 4.2 30.0
2015-Jul-20 14:00N 43°49' E 009°43'0 0.1 30.0
2015-Jul-20 13:12N 43°49' E 009°43'1 0.3 29.9
2015-Jul-20 11:32N 43°49' E 009°43'0 3.7 29.9
2015-Jul-20 11:28N 43°50' E 009°43'0 0.6 29.6
2015-Jul-20 10:44N 43°50' E 009°43'0 1.3
2015-Jul-20 10:40N 43°50' E 009°43'0 4.4 28.9
2015-Jul-20 10:35N 43°50' E 009°43'0 0.0 28.9
2015-Jul-20 09:49N 43°50' E 009°43'0 5.5 28.5
2015-Jul-20 09:44N 43°51' E 009°42'0 0.0
2015-Jul-20 09:03N 43°51' E 009°42'   28.2

Dump ship's entire track history